sensor_id;sensor_type;location;lat;lon;timestamp;P1;durP1;ratioP1;P2;durP2;ratioP2
45049;SDS011;61798;48.048;-1.928;2023-03-23T00:01:17;31.38;;;5.75;;
45049;SDS011;61798;48.048;-1.928;2023-03-23T00:03:25;34.63;;;5.35;;
45049;SDS011;61798;48.048;-1.928;2023-03-23T00:05:48;33.92;;;5.32;;
45049;SDS011;61798;48.048;-1.928;2023-03-23T00:08:00;28.35;;;4.40;;
45049;SDS011;61798;48.048;-1.928;2023-03-23T00:10:09;35.33;;;5.72;;
45049;SDS011;61798;48.048;-1.928;2023-03-23T00:12:17;28.63;;;5.07;;
45049;SDS011;61798;48.048;-1.928;2023-03-23T00:14:41;28.60;;;5.20;;
45049;SDS011;61798;48.048;-1.928;2023-03-23T00:16:50;25.85;;;4.10;;
45049;SDS011;61798;48.048;-1.928;2023-03-23T00:18:59;31.52;;;5.28;;
45049;SDS011;61798;48.048;-1.928;2023-03-23T00:21:14;32.33;;;4.47;;
45049;SDS011;61798;48.048;-1.928;2023-03-23T00:23:24;26.52;;;4.55;;
45049;SDS011;61798;48.048;-1.928;2023-03-23T00:25:32;27.88;;;4.45;;
45049;SDS011;61798;48.048;-1.928;2023-03-23T00:27:42;27.40;;;4.35;;
45049;SDS011;61798;48.048;-1.928;2023-03-23T00:29:52;31.95;;;4.80;;
45049;SDS011;61798;48.048;-1.928;2023-03-23T00:32:08;28.38;;;4.80;;
45049;SDS011;61798;48.048;-1.928;2023-03-23T00:34:21;24.45;;;4.00;;
45049;SDS011;61798;48.048;-1.928;2023-03-23T00:36:41;23.55;;;4.40;;
45049;SDS011;61798;48.048;-1.928;2023-03-23T00:38:51;31.20;;;4.60;;
45049;SDS011;61798;48.048;-1.928;2023-03-23T00:41:01;24.08;;;4.97;;
45049;SDS011;61798;48.048;-1.928;2023-03-23T00:43:17;20.42;;;3.97;;
45049;SDS011;61798;48.048;-1.928;2023-03-23T00:45:24;23.40;;;4.15;;
45049;SDS011;61798;48.048;-1.928;2023-03-23T00:47:31;28.92;;;4.40;;
45049;SDS011;61798;48.048;-1.928;2023-03-23T00:49:43;28.48;;;4.60;;
45049;SDS011;61798;48.048;-1.928;2023-03-23T00:52:01;19.05;;;4.22;;
45049;SDS011;61798;48.048;-1.928;2023-03-23T00:54:12;24.90;;;4.60;;
45049;SDS011;61798;48.048;-1.928;2023-03-23T00:56:28;24.97;;;3.80;;
45049;SDS011;61798;48.048;-1.928;2023-03-23T00:58:39;16.92;;;4.35;;
45049;SDS011;61798;48.048;-1.928;2023-03-23T01:00:49;20.17;;;4.18;;
45049;SDS011;61798;48.048;-1.928;2023-03-23T01:02:58;25.50;;;4.03;;
45049;SDS011;61798;48.048;-1.928;2023-03-23T01:05:07;23.77;;;4.85;;
45049;SDS011;61798;48.048;-1.928;2023-03-23T01:07:22;26.73;;;3.83;;
45049;SDS011;61798;48.048;-1.928;2023-03-23T01:09:29;14.60;;;3.58;;
45049;SDS011;61798;48.048;-1.928;2023-03-23T01:11:35;18.70;;;3.33;;
45049;SDS011;61798;48.048;-1.928;2023-03-23T01:13:42;22.13;;;3.88;;
45049;SDS011;61798;48.048;-1.928;2023-03-23T01:15:49;24.50;;;3.92;;
45049;SDS011;61798;48.048;-1.928;2023-03-23T01:17:55;19.30;;;3.45;;
45049;SDS011;61798;48.048;-1.928;2023-03-23T01:20:03;22.85;;;4.50;;
45049;SDS011;61798;48.048;-1.928;2023-03-23T01:22:10;23.75;;;4.60;;
45049;SDS011;61798;48.048;-1.928;2023-03-23T01:24:16;23.52;;;4.75;;
45049;SDS011;61798;48.048;-1.928;2023-03-23T01:26:23;20.83;;;3.95;;
45049;SDS011;61798;48.048;-1.928;2023-03-23T01:28:31;23.98;;;4.60;;
45049;SDS011;61798;48.048;-1.928;2023-03-23T01:30:38;25.35;;;4.15;;
45049;SDS011;61798;48.048;-1.928;2023-03-23T01:32:44;20.63;;;3.50;;
45049;SDS011;61798;48.048;-1.928;2023-03-23T01:34:50;26.63;;;4.25;;
45049;SDS011;61798;48.048;-1.928;2023-03-23T01:36:56;25.48;;;4.22;;
45049;SDS011;61798;48.048;-1.928;2023-03-23T01:39:03;22.17;;;3.58;;
45049;SDS011;61798;48.048;-1.928;2023-03-23T01:41:12;20.23;;;3.97;;
45049;SDS011;61798;48.048;-1.928;2023-03-23T01:43:20;30.13;;;4.30;;
45049;SDS011;61798;48.048;-1.928;2023-03-23T01:45:29;23.35;;;4.43;;
45049;SDS011;61798;48.048;-1.928;2023-03-23T01:47:36;27.92;;;3.92;;
45049;SDS011;61798;48.048;-1.928;2023-03-23T01:49:43;27.98;;;3.72;;
45049;SDS011;61798;48.048;-1.928;2023-03-23T01:51:54;30.75;;;4.57;;
45049;SDS011;61798;48.048;-1.928;2023-03-23T01:54:04;22.73;;;3.90;;
45049;SDS011;61798;48.048;-1.928;2023-03-23T01:56:12;31.60;;;5.05;;
45049;SDS011;61798;48.048;-1.928;2023-03-23T01:58:23;24.65;;;4.85;;
45049;SDS011;61798;48.048;-1.928;2023-03-23T02:00:33;29.73;;;5.05;;
45049;SDS011;61798;48.048;-1.928;2023-03-23T02:02:43;24.63;;;4.10;;
45049;SDS011;61798;48.048;-1.928;2023-03-23T02:04:52;23.65;;;3.97;;
45049;SDS011;61798;48.048;-1.928;2023-03-23T02:07:05;22.45;;;4.65;;
45049;SDS011;61798;48.048;-1.928;2023-03-23T02:09:12;31.50;;;4.78;;
45049;SDS011;61798;48.048;-1.928;2023-03-23T02:11:25;24.73;;;4.18;;
45049;SDS011;61798;48.048;-1.928;2023-03-23T02:13:33;24.00;;;4.05;;
45049;SDS011;61798;48.048;-1.928;2023-03-23T02:15:44;29.73;;;5.22;;
45049;SDS011;61798;48.048;-1.928;2023-03-23T02:18:00;24.33;;;5.20;;
45049;SDS011;61798;48.048;-1.928;2023-03-23T02:20:58;27.33;;;5.00;;
45049;SDS011;61798;48.048;-1.928;2023-03-23T02:23:07;34.30;;;5.93;;
45049;SDS011;61798;48.048;-1.928;2023-03-23T02:28:08;25.10;;;4.15;;
45049;SDS011;61798;48.048;-1.928;2023-03-23T02:37:50;30.13;;;4.50;;
45049;SDS011;61798;48.048;-1.928;2023-03-23T02:42:26;34.17;;;4.80;;
45049;SDS011;61798;48.048;-1.928;2023-03-23T02:44:38;24.05;;;5.07;;
45049;SDS011;61798;48.048;-1.928;2023-03-23T02:46:46;30.85;;;4.88;;
45049;SDS011;61798;48.048;-1.928;2023-03-23T02:48:54;25.10;;;4.82;;
45049;SDS011;61798;48.048;-1.928;2023-03-23T02:51:04;32.40;;;4.70;;
45049;SDS011;61798;48.048;-1.928;2023-03-23T02:53:12;42.15;;;5.28;;
45049;SDS011;61798;48.048;-1.928;2023-03-23T02:55:22;28.75;;;4.40;;
45049;SDS011;61798;48.048;-1.928;2023-03-23T02:57:30;33.22;;;4.55;;
45049;SDS011;61798;48.048;-1.928;2023-03-23T02:59:38;26.13;;;4.72;;
45049;SDS011;61798;48.048;-1.928;2023-03-23T03:01:46;25.42;;;4.35;;
45049;SDS011;61798;48.048;-1.928;2023-03-23T03:03:56;32.03;;;4.93;;
45049;SDS011;61798;48.048;-1.928;2023-03-23T03:06:07;29.13;;;4.75;;
45049;SDS011;61798;48.048;-1.928;2023-03-23T03:08:46;42.42;;;6.07;;
45049;SDS011;61798;48.048;-1.928;2023-03-23T03:11:08;37.20;;;5.53;;
45049;SDS011;61798;48.048;-1.928;2023-03-23T03:13:23;31.80;;;5.75;;
45049;SDS011;61798;48.048;-1.928;2023-03-23T03:15:44;28.90;;;4.35;;
45049;SDS011;61798;48.048;-1.928;2023-03-23T03:18:24;36.03;;;4.93;;
45049;SDS011;61798;48.048;-1.928;2023-03-23T03:20:38;31.05;;;4.22;;
45049;SDS011;61798;48.048;-1.928;2023-03-23T03:22:49;26.98;;;4.97;;
45049;SDS011;61798;48.048;-1.928;2023-03-23T03:24:58;23.10;;;4.88;;
45049;SDS011;61798;48.048;-1.928;2023-03-23T03:27:09;25.98;;;4.50;;
45049;SDS011;61798;48.048;-1.928;2023-03-23T03:29:21;24.13;;;5.22;;
45049;SDS011;61798;48.048;-1.928;2023-03-23T03:31:32;21.08;;;4.00;;
45049;SDS011;61798;48.048;-1.928;2023-03-23T03:33:42;21.10;;;3.42;;
45049;SDS011;61798;48.048;-1.928;2023-03-23T03:35:49;26.95;;;4.05;;
45049;SDS011;61798;48.048;-1.928;2023-03-23T03:37:56;19.00;;;3.40;;
45049;SDS011;61798;48.048;-1.928;2023-03-23T03:40:07;19.90;;;3.67;;
45049;SDS011;61798;48.048;-1.928;2023-03-23T03:42:18;27.35;;;3.78;;
45049;SDS011;61798;48.048;-1.928;2023-03-23T03:44:25;24.02;;;4.20;;
45049;SDS011;61798;48.048;-1.928;2023-03-23T03:46:32;21.40;;;3.90;;
45049;SDS011;61798;48.048;-1.928;2023-03-23T03:48:38;24.45;;;4.72;;
45049;SDS011;61798;48.048;-1.928;2023-03-23T03:50:44;27.25;;;4.28;;
45049;SDS011;61798;48.048;-1.928;2023-03-23T03:52:50;34.28;;;4.88;;
45049;SDS011;61798;48.048;-1.928;2023-03-23T03:54:56;28.13;;;4.35;;
45049;SDS011;61798;48.048;-1.928;2023-03-23T03:57:03;31.50;;;5.28;;
45049;SDS011;61798;48.048;-1.928;2023-03-23T03:59:09;29.90;;;5.10;;
45049;SDS011;61798;48.048;-1.928;2023-03-23T04:01:16;28.70;;;4.40;;
45049;SDS011;61798;48.048;-1.928;2023-03-23T04:03:25;37.08;;;5.05;;
45049;SDS011;61798;48.048;-1.928;2023-03-23T04:05:32;28.02;;;5.15;;
45049;SDS011;61798;48.048;-1.928;2023-03-23T04:07:38;34.72;;;5.07;;
45049;SDS011;61798;48.048;-1.928;2023-03-23T04:09:45;35.00;;;5.80;;
45049;SDS011;61798;48.048;-1.928;2023-03-23T04:11:53;32.42;;;4.68;;
45049;SDS011;61798;48.048;-1.928;2023-03-23T04:13:59;33.50;;;5.13;;
45049;SDS011;61798;48.048;-1.928;2023-03-23T04:16:05;32.38;;;4.47;;
45049;SDS011;61798;48.048;-1.928;2023-03-23T04:18:12;34.38;;;5.65;;
45049;SDS011;61798;48.048;-1.928;2023-03-23T04:20:21;28.38;;;5.15;;
45049;SDS011;61798;48.048;-1.928;2023-03-23T04:22:28;31.48;;;5.43;;
45049;SDS011;61798;48.048;-1.928;2023-03-23T04:24:39;33.80;;;5.20;;
45049;SDS011;61798;48.048;-1.928;2023-03-23T04:26:45;35.22;;;5.25;;
45049;SDS011;61798;48.048;-1.928;2023-03-23T04:28:51;36.67;;;5.25;;
45049;SDS011;61798;48.048;-1.928;2023-03-23T04:30:57;32.65;;;4.93;;
45049;SDS011;61798;48.048;-1.928;2023-03-23T04:33:05;27.52;;;5.35;;
45049;SDS011;61798;48.048;-1.928;2023-03-23T04:35:13;32.22;;;5.13;;
45049;SDS011;61798;48.048;-1.928;2023-03-23T04:37:19;28.05;;;4.38;;
45049;SDS011;61798;48.048;-1.928;2023-03-23T04:39:25;28.98;;;4.57;;
45049;SDS011;61798;48.048;-1.928;2023-03-23T04:41:34;22.67;;;4.55;;
45049;SDS011;61798;48.048;-1.928;2023-03-23T04:43:40;27.70;;;3.83;;
45049;SDS011;61798;48.048;-1.928;2023-03-23T04:45:55;22.80;;;3.67;;
45049;SDS011;61798;48.048;-1.928;2023-03-23T04:48:03;26.38;;;3.92;;
45049;SDS011;61798;48.048;-1.928;2023-03-23T04:50:11;24.70;;;4.75;;
45049;SDS011;61798;48.048;-1.928;2023-03-23T04:52:18;21.95;;;3.85;;
45049;SDS011;61798;48.048;-1.928;2023-03-23T04:54:25;27.30;;;5.65;;
45049;SDS011;61798;48.048;-1.928;2023-03-23T04:56:34;27.58;;;4.55;;
45049;SDS011;61798;48.048;-1.928;2023-03-23T04:58:42;26.10;;;4.32;;
45049;SDS011;61798;48.048;-1.928;2023-03-23T05:00:49;27.35;;;4.65;;
45049;SDS011;61798;48.048;-1.928;2023-03-23T05:02:55;27.42;;;4.22;;
45049;SDS011;61798;48.048;-1.928;2023-03-23T05:05:03;19.92;;;3.92;;
45049;SDS011;61798;48.048;-1.928;2023-03-23T05:07:11;28.00;;;3.92;;
45049;SDS011;61798;48.048;-1.928;2023-03-23T05:09:17;23.20;;;4.35;;
45049;SDS011;61798;48.048;-1.928;2023-03-23T05:11:23;25.80;;;4.70;;
45049;SDS011;61798;48.048;-1.928;2023-03-23T05:13:29;22.42;;;3.78;;
45049;SDS011;61798;48.048;-1.928;2023-03-23T05:15:37;21.98;;;4.43;;
45049;SDS011;61798;48.048;-1.928;2023-03-23T05:17:43;22.98;;;4.20;;
45049;SDS011;61798;48.048;-1.928;2023-03-23T05:19:55;19.38;;;4.38;;
45049;SDS011;61798;48.048;-1.928;2023-03-23T05:22:02;26.48;;;5.40;;
45049;SDS011;61798;48.048;-1.928;2023-03-23T05:24:10;29.23;;;4.72;;
45049;SDS011;61798;48.048;-1.928;2023-03-23T05:26:16;30.17;;;5.75;;
45049;SDS011;61798;48.048;-1.928;2023-03-23T05:28:22;28.80;;;5.22;;
45049;SDS011;61798;48.048;-1.928;2023-03-23T05:30:28;32.20;;;5.97;;
45049;SDS011;61798;48.048;-1.928;2023-03-23T05:32:35;34.05;;;5.10;;
45049;SDS011;61798;48.048;-1.928;2023-03-23T05:34:42;30.05;;;5.18;;
45049;SDS011;61798;48.048;-1.928;2023-03-23T05:36:49;24.63;;;5.47;;
45049;SDS011;61798;48.048;-1.928;2023-03-23T05:38:55;30.48;;;6.28;;
45049;SDS011;61798;48.048;-1.928;2023-03-23T05:41:02;22.65;;;5.80;;
45049;SDS011;61798;48.048;-1.928;2023-03-23T05:43:08;43.78;;;6.03;;
45049;SDS011;61798;48.048;-1.928;2023-03-23T05:45:15;38.22;;;5.50;;
45049;SDS011;61798;48.048;-1.928;2023-03-23T05:47:22;29.10;;;6.03;;
45049;SDS011;61798;48.048;-1.928;2023-03-23T05:49:28;33.92;;;6.00;;
45049;SDS011;61798;48.048;-1.928;2023-03-23T05:51:35;27.55;;;5.25;;
45049;SDS011;61798;48.048;-1.928;2023-03-23T05:53:43;34.88;;;5.57;;
45049;SDS011;61798;48.048;-1.928;2023-03-23T05:55:51;32.92;;;6.32;;
45049;SDS011;61798;48.048;-1.928;2023-03-23T05:57:58;33.72;;;5.35;;
45049;SDS011;61798;48.048;-1.928;2023-03-23T06:00:04;34.33;;;5.40;;
45049;SDS011;61798;48.048;-1.928;2023-03-23T06:02:25;35.47;;;6.22;;
45049;SDS011;61798;48.048;-1.928;2023-03-23T06:04:34;31.67;;;5.00;;
45049;SDS011;61798;48.048;-1.928;2023-03-23T06:06:42;33.47;;;4.75;;
45049;SDS011;61798;48.048;-1.928;2023-03-23T06:08:48;35.25;;;5.38;;
45049;SDS011;61798;48.048;-1.928;2023-03-23T06:10:55;39.22;;;5.68;;
45049;SDS011;61798;48.048;-1.928;2023-03-23T06:13:02;40.35;;;6.30;;
45049;SDS011;61798;48.048;-1.928;2023-03-23T06:15:09;34.45;;;5.20;;
45049;SDS011;61798;48.048;-1.928;2023-03-23T06:17:17;39.60;;;5.80;;
45049;SDS011;61798;48.048;-1.928;2023-03-23T06:19:23;37.70;;;5.70;;
45049;SDS011;61798;48.048;-1.928;2023-03-23T06:21:33;39.13;;;6.65;;
45049;SDS011;61798;48.048;-1.928;2023-03-23T06:23:41;31.95;;;5.90;;
45049;SDS011;61798;48.048;-1.928;2023-03-23T06:25:48;33.72;;;5.97;;
45049;SDS011;61798;48.048;-1.928;2023-03-23T06:27:55;41.45;;;6.07;;
45049;SDS011;61798;48.048;-1.928;2023-03-23T06:30:02;41.30;;;6.38;;
45049;SDS011;61798;48.048;-1.928;2023-03-23T06:32:11;43.17;;;8.40;;
45049;SDS011;61798;48.048;-1.928;2023-03-23T06:34:19;41.20;;;6.47;;
45049;SDS011;61798;48.048;-1.928;2023-03-23T06:36:26;44.15;;;7.00;;
45049;SDS011;61798;48.048;-1.928;2023-03-23T06:38:33;40.97;;;6.15;;
45049;SDS011;61798;48.048;-1.928;2023-03-23T06:40:39;40.35;;;6.22;;
45049;SDS011;61798;48.048;-1.928;2023-03-23T06:42:46;37.47;;;6.47;;
45049;SDS011;61798;48.048;-1.928;2023-03-23T06:44:52;46.20;;;6.78;;
45049;SDS011;61798;48.048;-1.928;2023-03-23T06:47:03;33.00;;;6.30;;
45049;SDS011;61798;48.048;-1.928;2023-03-23T06:49:10;45.95;;;5.90;;
45049;SDS011;61798;48.048;-1.928;2023-03-23T06:51:16;38.00;;;6.55;;
45049;SDS011;61798;48.048;-1.928;2023-03-23T06:53:23;39.63;;;6.18;;
45049;SDS011;61798;48.048;-1.928;2023-03-23T06:55:30;44.83;;;7.20;;
45049;SDS011;61798;48.048;-1.928;2023-03-23T06:57:37;38.42;;;6.15;;
45049;SDS011;61798;48.048;-1.928;2023-03-23T06:59:43;48.17;;;7.75;;
45049;SDS011;61798;48.048;-1.928;2023-03-23T07:01:51;34.63;;;6.35;;
45049;SDS011;61798;48.048;-1.928;2023-03-23T07:03:57;40.13;;;6.75;;
45049;SDS011;61798;48.048;-1.928;2023-03-23T07:06:03;39.45;;;6.40;;
45049;SDS011;61798;48.048;-1.928;2023-03-23T07:08:11;54.05;;;6.78;;
45049;SDS011;61798;48.048;-1.928;2023-03-23T07:10:17;35.10;;;6.80;;
45049;SDS011;61798;48.048;-1.928;2023-03-23T07:12:23;38.20;;;7.18;;
45049;SDS011;61798;48.048;-1.928;2023-03-23T07:14:30;49.47;;;6.78;;
45049;SDS011;61798;48.048;-1.928;2023-03-23T07:16:37;37.38;;;6.57;;
45049;SDS011;61798;48.048;-1.928;2023-03-23T07:18:43;43.50;;;7.78;;
45049;SDS011;61798;48.048;-1.928;2023-03-23T07:20:50;46.13;;;7.18;;
45049;SDS011;61798;48.048;-1.928;2023-03-23T07:22:58;38.17;;;5.78;;
45049;SDS011;61798;48.048;-1.928;2023-03-23T07:25:04;38.08;;;6.43;;
45049;SDS011;61798;48.048;-1.928;2023-03-23T07:27:12;43.00;;;6.63;;
45049;SDS011;61798;48.048;-1.928;2023-03-23T07:29:18;51.75;;;7.05;;
45049;SDS011;61798;48.048;-1.928;2023-03-23T07:31:24;37.72;;;7.00;;
45049;SDS011;61798;48.048;-1.928;2023-03-23T07:33:30;38.83;;;6.43;;
45049;SDS011;61798;48.048;-1.928;2023-03-23T07:35:37;42.83;;;8.43;;
45049;SDS011;61798;48.048;-1.928;2023-03-23T07:37:44;58.17;;;14.68;;
45049;SDS011;61798;48.048;-1.928;2023-03-23T07:39:54;45.47;;;8.50;;
45049;SDS011;61798;48.048;-1.928;2023-03-23T07:42:01;46.75;;;7.72;;
45049;SDS011;61798;48.048;-1.928;2023-03-23T07:44:07;42.88;;;7.32;;
45049;SDS011;61798;48.048;-1.928;2023-03-23T07:46:13;43.47;;;7.60;;
45049;SDS011;61798;48.048;-1.928;2023-03-23T07:48:21;51.55;;;7.93;;
45049;SDS011;61798;48.048;-1.928;2023-03-23T07:50:27;38.85;;;7.15;;
45049;SDS011;61798;48.048;-1.928;2023-03-23T07:52:35;40.55;;;6.47;;
45049;SDS011;61798;48.048;-1.928;2023-03-23T07:54:41;42.40;;;6.68;;
45049;SDS011;61798;48.048;-1.928;2023-03-23T07:56:47;51.60;;;7.90;;
45049;SDS011;61798;48.048;-1.928;2023-03-23T07:58:55;37.70;;;7.30;;
45049;SDS011;61798;48.048;-1.928;2023-03-23T08:01:02;44.65;;;7.25;;
45049;SDS011;61798;48.048;-1.928;2023-03-23T08:03:08;37.45;;;6.80;;
45049;SDS011;61798;48.048;-1.928;2023-03-23T08:05:15;39.50;;;6.88;;
45049;SDS011;61798;48.048;-1.928;2023-03-23T08:07:24;54.95;;;7.20;;
45049;SDS011;61798;48.048;-1.928;2023-03-23T08:09:30;44.22;;;8.18;;
45049;SDS011;61798;48.048;-1.928;2023-03-23T08:11:37;40.20;;;6.50;;
45049;SDS011;61798;48.048;-1.928;2023-03-23T08:13:44;46.35;;;7.75;;
45049;SDS011;61798;48.048;-1.928;2023-03-23T08:15:53;40.30;;;7.03;;
45049;SDS011;61798;48.048;-1.928;2023-03-23T08:18:00;44.13;;;7.18;;
45049;SDS011;61798;48.048;-1.928;2023-03-23T08:20:07;44.95;;;7.15;;
45049;SDS011;61798;48.048;-1.928;2023-03-23T08:22:19;40.60;;;7.53;;
45049;SDS011;61798;48.048;-1.928;2023-03-23T08:24:27;50.13;;;11.43;;
45049;SDS011;61798;48.048;-1.928;2023-03-23T08:26:33;55.15;;;10.45;;
45049;SDS011;61798;48.048;-1.928;2023-03-23T08:28:39;32.60;;;7.43;;
45049;SDS011;61798;48.048;-1.928;2023-03-23T08:30:46;43.00;;;7.30;;
45049;SDS011;61798;48.048;-1.928;2023-03-23T08:32:52;46.58;;;8.98;;
45049;SDS011;61798;48.048;-1.928;2023-03-23T08:34:58;35.53;;;7.78;;
45049;SDS011;61798;48.048;-1.928;2023-03-23T08:37:06;43.00;;;7.72;;
45049;SDS011;61798;48.048;-1.928;2023-03-23T08:39:13;35.88;;;8.32;;
45049;SDS011;61798;48.048;-1.928;2023-03-23T08:41:23;38.47;;;7.63;;
45049;SDS011;61798;48.048;-1.928;2023-03-23T08:43:34;39.47;;;7.63;;
45049;SDS011;61798;48.048;-1.928;2023-03-23T08:45:41;30.98;;;5.95;;
45049;SDS011;61798;48.048;-1.928;2023-03-23T08:47:48;33.15;;;6.18;;
45049;SDS011;61798;48.048;-1.928;2023-03-23T08:49:57;32.50;;;6.05;;
45049;SDS011;61798;48.048;-1.928;2023-03-23T08:52:04;38.53;;;7.63;;
45049;SDS011;61798;48.048;-1.928;2023-03-23T08:54:11;37.60;;;5.88;;
45049;SDS011;61798;48.048;-1.928;2023-03-23T08:56:17;31.33;;;6.32;;
45049;SDS011;61798;48.048;-1.928;2023-03-23T08:58:25;26.60;;;6.60;;
45049;SDS011;61798;48.048;-1.928;2023-03-23T09:00:31;34.38;;;7.03;;
45049;SDS011;61798;48.048;-1.928;2023-03-23T09:02:37;32.97;;;6.07;;
45049;SDS011;61798;48.048;-1.928;2023-03-23T09:04:43;28.65;;;6.45;;
45049;SDS011;61798;48.048;-1.928;2023-03-23T09:06:50;30.40;;;5.90;;
45049;SDS011;61798;48.048;-1.928;2023-03-23T09:08:56;33.38;;;6.45;;
45049;SDS011;61798;48.048;-1.928;2023-03-23T09:11:02;31.52;;;6.25;;
45049;SDS011;61798;48.048;-1.928;2023-03-23T09:13:13;31.38;;;6.30;;
45049;SDS011;61798;48.048;-1.928;2023-03-23T09:15:20;29.65;;;5.05;;
45049;SDS011;61798;48.048;-1.928;2023-03-23T09:17:28;24.05;;;5.05;;
45049;SDS011;61798;48.048;-1.928;2023-03-23T09:19:35;31.67;;;5.47;;
45049;SDS011;61798;48.048;-1.928;2023-03-23T09:21:41;29.77;;;5.88;;
45049;SDS011;61798;48.048;-1.928;2023-03-23T09:23:48;29.10;;;5.00;;
45049;SDS011;61798;48.048;-1.928;2023-03-23T09:25:54;31.88;;;5.22;;
45049;SDS011;61798;48.048;-1.928;2023-03-23T09:28:01;23.10;;;4.40;;
45049;SDS011;61798;48.048;-1.928;2023-03-23T09:30:10;25.70;;;4.85;;
45049;SDS011;61798;48.048;-1.928;2023-03-23T09:32:18;32.67;;;5.43;;
45049;SDS011;61798;48.048;-1.928;2023-03-23T09:34:26;30.25;;;5.25;;
45049;SDS011;61798;48.048;-1.928;2023-03-23T09:36:35;30.63;;;5.22;;
45049;SDS011;61798;48.048;-1.928;2023-03-23T09:38:41;29.80;;;5.22;;
45049;SDS011;61798;48.048;-1.928;2023-03-23T09:43:13;19.27;;;4.30;;
45049;SDS011;61798;48.048;-1.928;2023-03-23T09:45:31;17.75;;;4.00;;
45049;SDS011;61798;48.048;-1.928;2023-03-23T09:48:04;21.63;;;4.60;;
45049;SDS011;61798;48.048;-1.928;2023-03-23T09:50:15;29.27;;;5.43;;
45049;SDS011;61798;48.048;-1.928;2023-03-23T09:52:47;23.25;;;4.30;;
45049;SDS011;61798;48.048;-1.928;2023-03-23T09:55:09;20.13;;;4.03;;
45049;SDS011;61798;48.048;-1.928;2023-03-23T10:00:15;21.25;;;4.43;;
45049;SDS011;61798;48.048;-1.928;2023-03-23T10:03:01;23.85;;;4.43;;
45049;SDS011;61798;48.048;-1.928;2023-03-23T10:05:31;28.50;;;5.55;;
45049;SDS011;61798;48.048;-1.928;2023-03-23T10:07:43;16.15;;;3.25;;
45049;SDS011;61798;48.048;-1.928;2023-03-23T10:09:51;24.25;;;5.13;;
45049;SDS011;61798;48.048;-1.928;2023-03-23T10:12:50;20.83;;;4.45;;
45049;SDS011;61798;48.048;-1.928;2023-03-23T10:19:20;26.77;;;5.13;;
45049;SDS011;61798;48.048;-1.928;2023-03-23T10:21:37;27.27;;;5.50;;
45049;SDS011;61798;48.048;-1.928;2023-03-23T10:24:01;33.28;;;6.40;;
45049;SDS011;61798;48.048;-1.928;2023-03-23T10:28:42;25.33;;;4.88;;
45049;SDS011;61798;48.048;-1.928;2023-03-23T10:30:52;22.48;;;4.38;;
45049;SDS011;61798;48.048;-1.928;2023-03-23T10:33:08;26.65;;;5.07;;
45049;SDS011;61798;48.048;-1.928;2023-03-23T10:35:22;20.55;;;4.88;;
45049;SDS011;61798;48.048;-1.928;2023-03-23T10:37:38;19.60;;;4.20;;
45049;SDS011;61798;48.048;-1.928;2023-03-23T10:39:51;26.40;;;4.70;;
45049;SDS011;61798;48.048;-1.928;2023-03-23T10:42:00;28.52;;;4.78;;
45049;SDS011;61798;48.048;-1.928;2023-03-23T10:44:17;25.27;;;4.20;;
45049;SDS011;61798;48.048;-1.928;2023-03-23T10:48:44;20.30;;;4.72;;
45049;SDS011;61798;48.048;-1.928;2023-03-23T10:50:55;21.85;;;5.10;;
45049;SDS011;61798;48.048;-1.928;2023-03-23T10:53:10;28.67;;;5.40;;
45049;SDS011;61798;48.048;-1.928;2023-03-23T10:55:24;25.52;;;6.18;;
45049;SDS011;61798;48.048;-1.928;2023-03-23T10:57:43;30.33;;;5.90;;
45049;SDS011;61798;48.048;-1.928;2023-03-23T10:59:51;25.13;;;5.78;;
45049;SDS011;61798;48.048;-1.928;2023-03-23T11:02:01;36.42;;;6.72;;
45049;SDS011;61798;48.048;-1.928;2023-03-23T11:04:18;37.35;;;6.63;;
45049;SDS011;61798;48.048;-1.928;2023-03-23T11:06:27;30.77;;;5.95;;
45049;SDS011;61798;48.048;-1.928;2023-03-23T11:08:47;22.33;;;5.13;;
45049;SDS011;61798;48.048;-1.928;2023-03-23T11:11:10;26.67;;;5.10;;
45049;SDS011;61798;48.048;-1.928;2023-03-23T11:13:31;33.20;;;7.88;;
45049;SDS011;61798;48.048;-1.928;2023-03-23T11:15:40;36.00;;;8.48;;
45049;SDS011;61798;48.048;-1.928;2023-03-23T11:17:54;32.70;;;6.97;;
45049;SDS011;61798;48.048;-1.928;2023-03-23T11:20:09;33.97;;;6.30;;
45049;SDS011;61798;48.048;-1.928;2023-03-23T11:22:24;38.03;;;6.55;;
45049;SDS011;61798;48.048;-1.928;2023-03-23T11:24:42;34.92;;;6.22;;
45049;SDS011;61798;48.048;-1.928;2023-03-23T11:26:52;39.95;;;6.50;;
45049;SDS011;61798;48.048;-1.928;2023-03-23T11:31:20;28.88;;;6.63;;
45049;SDS011;61798;48.048;-1.928;2023-03-23T11:33:38;39.92;;;7.13;;
45049;SDS011;61798;48.048;-1.928;2023-03-23T11:35:54;46.28;;;8.18;;
45049;SDS011;61798;48.048;-1.928;2023-03-23T11:38:01;37.08;;;6.70;;
45049;SDS011;61798;48.048;-1.928;2023-03-23T11:42:37;30.73;;;5.65;;
45049;SDS011;61798;48.048;-1.928;2023-03-23T11:45:03;32.88;;;6.18;;
45049;SDS011;61798;48.048;-1.928;2023-03-23T11:47:24;29.73;;;6.35;;
45049;SDS011;61798;48.048;-1.928;2023-03-23T11:49:57;25.48;;;5.35;;
45049;SDS011;61798;48.048;-1.928;2023-03-23T11:54:43;27.08;;;5.70;;
45049;SDS011;61798;48.048;-1.928;2023-03-23T11:56:59;34.45;;;6.03;;
45049;SDS011;61798;48.048;-1.928;2023-03-23T11:59:16;33.85;;;5.85;;
45049;SDS011;61798;48.048;-1.928;2023-03-23T12:23:39;32.70;;;7.20;;
45049;SDS011;61798;48.048;-1.928;2023-03-23T12:29:23;29.23;;;5.80;;
45049;SDS011;61798;48.048;-1.928;2023-03-23T12:41:44;35.10;;;6.45;;
45049;SDS011;61798;48.048;-1.928;2023-03-23T12:44:09;39.47;;;7.18;;
45049;SDS011;61798;48.048;-1.928;2023-03-23T12:46:25;27.95;;;6.20;;
45049;SDS011;61798;48.048;-1.928;2023-03-23T12:48:45;32.35;;;6.10;;
45049;SDS011;61798;48.048;-1.928;2023-03-23T12:53:21;33.22;;;6.53;;
45049;SDS011;61798;48.048;-1.928;2023-03-23T12:55:39;28.58;;;6.68;;
45049;SDS011;61798;48.048;-1.928;2023-03-23T12:57:53;30.67;;;5.70;;
45049;SDS011;61798;48.048;-1.928;2023-03-23T13:00:18;32.55;;;5.78;;
45049;SDS011;61798;48.048;-1.928;2023-03-23T13:03:04;27.58;;;6.72;;
45049;SDS011;61798;48.048;-1.928;2023-03-23T13:05:40;31.30;;;5.85;;
45049;SDS011;61798;48.048;-1.928;2023-03-23T13:07:43;40.85;;;6.10;;
45049;SDS011;61798;48.048;-1.928;2023-03-23T13:09:55;34.92;;;6.25;;
45049;SDS011;61798;48.048;-1.928;2023-03-23T13:12:09;30.60;;;6.32;;
45049;SDS011;61798;48.048;-1.928;2023-03-23T13:16:51;31.55;;;6.53;;
45049;SDS011;61798;48.048;-1.928;2023-03-23T13:23:38;26.50;;;5.18;;
45049;SDS011;61798;48.048;-1.928;2023-03-23T13:28:12;38.13;;;6.70;;
45049;SDS011;61798;48.048;-1.928;2023-03-23T13:30:27;29.15;;;5.60;;
45049;SDS011;61798;48.048;-1.928;2023-03-23T13:32:38;32.58;;;5.85;;
45049;SDS011;61798;48.048;-1.928;2023-03-23T13:34:46;27.38;;;5.82;;
45049;SDS011;61798;48.048;-1.928;2023-03-23T13:36:56;28.67;;;5.95;;
45049;SDS011;61798;48.048;-1.928;2023-03-23T13:39:21;30.85;;;5.88;;
45049;SDS011;61798;48.048;-1.928;2023-03-23T13:41:29;23.55;;;5.25;;
45049;SDS011;61798;48.048;-1.928;2023-03-23T13:43:36;27.77;;;5.43;;
45049;SDS011;61798;48.048;-1.928;2023-03-23T13:45:45;27.48;;;5.72;;
45049;SDS011;61798;48.048;-1.928;2023-03-23T13:50:42;28.58;;;7.18;;
45049;SDS011;61798;48.048;-1.928;2023-03-23T13:53:11;29.42;;;5.57;;
45049;SDS011;61798;48.048;-1.928;2023-03-23T13:55:21;24.83;;;5.53;;
45049;SDS011;61798;48.048;-1.928;2023-03-23T13:57:35;24.27;;;5.78;;
45049;SDS011;61798;48.048;-1.928;2023-03-23T13:59:48;19.75;;;4.95;;
45049;SDS011;61798;48.048;-1.928;2023-03-23T14:04:54;27.90;;;5.68;;
45049;SDS011;61798;48.048;-1.928;2023-03-23T14:07:08;18.52;;;4.00;;
45049;SDS011;61798;48.048;-1.928;2023-03-23T14:09:21;22.45;;;4.60;;
45049;SDS011;61798;48.048;-1.928;2023-03-23T14:11:31;19.48;;;4.25;;